Time;durP1;ratioP1;P1;durP2;ratioP2;P2;SDS_P1;SDS_P2;PMS_P1;PMS_P2;Temp;Humidity;BMP_temperature;BMP_pressure;BME280_temperature;BME280_humidity;BME280_pressure;Samples;Min_cycle;Max_cycle;Signal;HPM_P1;HPM_P2
2021/03/29 00:01:36;;;;;;;7.75;2.63;;;7.40;52.30;;;;;;4977000;28;20062;-75
2021/03/29 00:04:02;;;;;;;8.20;2.85;;;7.40;52.30;;;;;;4994871;28;20022;-76
2021/03/29 00:06:28;;;;;;;5.63;2.40;;;7.40;52.40;;;;;;4995098;28;20458;-75
2021/03/29 00:08:55;;;;;;;5.25;2.53;;;7.40;52.40;;;;;;4996156;28;20054;-75
2021/03/29 00:11:23;;;;;;;5.82;2.60;;;7.40;52.30;;;;;;4994754;28;20034;-75
2021/03/29 00:13:49;;;;;;;9.75;2.75;;;7.40;52.40;;;;;;4995002;28;20045;-74
2021/03/29 00:16:17;;;;;;;4.75;2.40;;;7.40;52.30;;;;;;4995930;28;20502;-76
2021/03/29 00:18:44;;;;;;;6.47;2.50;;;7.40;52.30;;;;;;4994568;28;20040;-75
2021/03/29 00:21:10;;;;;;;8.32;2.58;;;7.40;52.10;;;;;;4994808;28;20025;-75
2021/03/29 00:23:36;;;;;;;8.13;2.58;;;7.30;52.40;;;;;;4996067;28;20113;-76
2021/03/29 00:26:05;;;;;;;5.50;2.47;;;7.30;52.50;;;;;;4994621;28;20105;-76
2021/03/29 00:28:30;;;;;;;3.72;1.98;;;7.30;52.60;;;;;;4994794;28;20038;-76
2021/03/29 00:30:56;;;;;;;3.67;1.90;;;7.30;52.60;;;;;;4994671;28;20022;-75
2021/03/29 00:33:25;;;;;;;4.55;2.05;;;7.40;52.50;;;;;;4994465;28;20033;-77
2021/03/29 00:35:51;;;;;;;5.28;2.20;;;7.40;52.40;;;;;;4994708;28;20022;-76
2021/03/29 00:38:18;;;;;;;4.22;1.83;;;7.40;52.40;;;;;;4995773;28;20034;-75
2021/03/29 00:40:48;;;;;;;4.93;2.50;;;7.40;52.30;;;;;;4995756;28;20014;-76
2021/03/29 00:43:19;;;;;;;5.90;1.90;;;7.40;52.80;;;;;;4994448;28;20072;-78
2021/03/29 00:45:48;;;;;;;7.10;2.25;;;7.40;51.90;;;;;;4994443;28;20054;-76
2021/03/29 00:48:16;;;;;;;6.93;2.15;;;7.40;51.80;;;;;;4994156;28;20121;-77
2021/03/29 00:51:03;;;;;;;6.15;2.22;;;7.50;51.90;;;;;;4994156;28;20022;-75
2021/03/29 00:53:30;;;;;;;5.03;2.15;;;7.50;51.80;;;;;;4994394;28;20080;-76
2021/03/29 00:55:56;;;;;;;4.10;1.83;;;7.60;51.60;;;;;;4994110;28;20121;-75
2021/03/29 00:58:25;;;;;;;5.53;2.08;;;7.60;51.50;;;;;;4993859;28;20387;-76
2021/03/29 01:00:54;;;;;;;4.85;1.50;;;7.70;51.50;;;;;;4994144;28;20027;-76
2021/03/29 01:03:31;;;;;;;2.38;1.30;;;7.70;51.40;;;;;;4993899;28;20062;-76
2021/03/29 01:06:12;;;;;;;6.90;2.42;;;7.70;50.70;;;;;;4994129;28;20023;-75
2021/03/29 01:08:40;;;;;;;6.32;2.10;;;7.70;50.80;;;;;;4995396;28;20097;-75
2021/03/29 01:11:10;;;;;;;9.00;2.05;;;7.60;50.90;;;;;;4993835;28;20037;-76
2021/03/29 01:13:49;;;;;;;5.90;2.47;;;7.60;51.40;;;;;;4993639;28;20060;-75
2021/03/29 01:16:19;;;;;;;6.50;2.40;;;7.60;51.80;;;;;;4993738;28;20033;-75
2021/03/29 01:18:49;;;;;;;5.80;2.03;;;7.50;51.90;;;;;;4995001;28;20097;-75
2021/03/29 01:21:39;;;;;;;5.43;2.10;;;7.50;52.10;;;;;;4995082;28;20379;-75
2021/03/29 01:24:22;;;;;;;3.58;1.73;;;7.40;51.90;;;;;;4993658;28;20383;-75
2021/03/29 01:26:49;;;;;;;4.55;1.92;;;7.50;51.90;;;;;;4994940;28;20030;-75
2021/03/29 01:29:17;;;;;;;3.17;1.50;;;7.50;51.80;;;;;;4993539;28;20117;-75
2021/03/29 01:31:45;;;;;;;5.00;1.75;;;7.50;51.80;;;;;;4994776;28;20114;-76
2021/03/29 01:34:14;;;;;;;5.80;1.80;;;7.50;51.60;;;;;;4994763;28;20361;-76
2021/03/29 01:36:42;;;;;;;5.72;1.80;;;7.50;51.80;;;;;;4993471;28;20022;-76
2021/03/29 01:39:10;;;;;;;5.35;1.98;;;7.40;51.90;;;;;;4994404;28;20054;-75
2021/03/29 01:41:36;;;;;;;6.50;1.63;;;7.40;52.00;;;;;;4994565;28;20026;-76
2021/03/29 01:44:02;;;;;;;4.18;2.00;;;7.40;51.90;;;;;;4994824;28;20038;-75
2021/03/29 01:46:28;;;;;;;2.83;1.50;;;7.40;51.40;;;;;;4994516;28;20022;-75
2021/03/29 01:48:54;;;;;;;5.57;2.13;;;7.50;51.40;;;;;;4994521;28;20027;-75
2021/03/29 01:51:20;;;;;;;3.47;2.13;;;7.50;51.30;;;;;;4994174;28;20112;-76
2021/03/29 01:53:47;;;;;;;5.20;1.63;;;7.50;51.30;;;;;;4976716;28;20084;-76
2021/03/29 01:56:13;;;;;;;7.65;1.88;;;7.50;51.20;;;;;;4992942;28;20027;-76
2021/03/29 01:58:41;;;;;;;5.20;1.85;;;7.50;51.30;;;;;;4994241;28;20452;-76
2021/03/29 02:01:10;;;;;;;5.88;1.83;;;7.40;51.20;;;;;;4992984;28;20108;-76
2021/03/29 02:03:36;;;;;;;4.68;1.65;;;7.40;51.50;;;;;;4977372;28;20027;-74
2021/03/29 02:06:03;;;;;;;3.38;1.60;;;7.40;51.30;;;;;;4997277;28;20019;-74
2021/03/29 02:08:31;;;;;;;4.40;1.80;;;7.30;51.80;;;;;;4982643;28;20046;-74
2021/03/29 02:10:58;;;;;;;3.60;1.88;;;7.30;52.10;;;;;;4995646;28;20035;-75
2021/03/29 02:13:31;;;;;;;6.22;1.60;;;7.20;52.00;;;;;;4998345;28;20029;-74
2021/03/29 02:16:01;;;;;;;5.00;2.15;;;7.20;51.90;;;;;;4995587;28;20088;-74
2021/03/29 02:18:29;;;;;;;6.15;2.25;;;7.10;51.90;;;;;;4993895;28;20502;-74
2021/03/29 02:21:00;;;;;;;3.65;1.73;;;7.10;52.30;;;;;;4992799;28;20395;-74
2021/03/29 02:23:27;;;;;;;5.13;2.10;;;7.10;52.50;;;;;;4991925;28;20475;-74
2021/03/29 02:25:53;;;;;;;5.75;2.38;;;7.10;52.60;;;;;;4993889;28;20023;-74
2021/03/29 02:28:19;;;;;;;6.18;2.00;;;7.10;52.80;;;;;;4995389;28;20030;-74
2021/03/29 02:30:46;;;;;;;5.68;2.10;;;7.10;52.80;;;;;;4994646;28;20029;-74
2021/03/29 02:33:15;;;;;;;6.50;2.55;;;6.90;53.10;;;;;;4994412;28;20035;-74
2021/03/29 02:35:41;;;;;;;5.57;1.70;;;6.90;53.20;;;;;;4994231;28;20034;-73
2021/03/29 02:38:10;;;;;;;5.07;2.03;;;6.90;53.50;;;;;;4992572;28;20034;-74
2021/03/29 02:40:37;;;;;;;5.32;1.88;;;6.90;53.60;;;;;;4960964;28;20027;-75
2021/03/29 02:43:04;;;;;;;5.85;1.58;;;7.00;53.50;;;;;;4992611;28;20026;-75
2021/03/29 02:45:33;;;;;;;7.38;1.80;;;7.00;53.40;;;;;;4993906;28;20019;-75
2021/03/29 02:48:14;;;;;;;4.35;2.00;;;7.00;53.40;;;;;;4993806;28;20027;-76
2021/03/29 02:50:42;;;;;;;8.10;2.63;;;7.00;53.30;;;;;;4993691;28;20057;-76
2021/03/29 02:53:12;;;;;;;4.60;1.95;;;7.00;53.40;;;;;;4993559;28;20074;-76
2021/03/29 02:55:38;;;;;;;4.30;1.88;;;7.00;53.40;;;;;;4992106;28;20061;-77
2021/03/29 02:58:06;;;;;;;4.50;1.65;;;7.00;53.50;;;;;;4992359;28;20037;-75
2021/03/29 03:00:34;;;;;;;8.57;2.25;;;6.90;53.70;;;;;;4992019;28;20027;-76
2021/03/29 03:03:02;;;;;;;7.82;2.05;;;6.90;54.50;;;;;;4992428;28;20574;-75
2021/03/29 03:05:30;;;;;;;6.72;1.88;;;6.90;53.90;;;;;;4993228;28;20023;-76
2021/03/29 03:07:57;;;;;;;5.47;2.20;;;6.80;54.70;;;;;;4994475;28;20514;-76
2021/03/29 03:10:23;;;;;;;5.45;2.40;;;6.70;54.40;;;;;;4996096;28;20124;-76
2021/03/29 03:12:49;;;;;;;5.80;2.25;;;6.60;54.80;;;;;;4998274;28;20505;-76
2021/03/29 03:15:28;;;;;;;5.28;1.75;;;6.60;55.00;;;;;;4994512;28;20388;-76
2021/03/29 03:17:58;;;;;;;3.83;2.20;;;6.50;55.10;;;;;;4994405;28;20035;-76
2021/03/29 03:20:24;;;;;;;6.60;3.15;;;6.50;55.20;;;;;;4993412;28;20026;-73
2021/03/29 03:23:01;;;;;;;6.55;3.30;;;6.50;55.40;;;;;;4993196;28;20034;-74
2021/03/29 03:25:39;;;;;;;7.82;3.90;;;6.50;55.50;;;;;;4993405;28;20614;-73
2021/03/29 03:28:07;;;;;;;8.07;3.33;;;6.50;55.80;;;;;;4993186;28;20038;-73
2021/03/29 03:30:35;;;;;;;7.05;3.05;;;6.40;56.00;;;;;;4993259;28;20053;-74
2021/03/29 03:33:02;;;;;;;6.40;3.20;;;6.40;56.10;;;;;;4993061;28;20092;-73
2021/03/29 03:35:29;;;;;;;7.82;2.58;;;6.30;56.20;;;;;;4993421;28;20041;-74
2021/03/29 03:38:18;;;;;;;5.43;1.95;;;6.20;56.20;;;;;;4997206;28;20073;-74
2021/03/29 03:40:47;;;;;;;5.88;2.00;;;6.20;56.40;;;;;;4996843;28;20022;-73
2021/03/29 03:43:16;;;;;;;5.03;2.15;;;6.10;56.60;;;;;;4996903;28;20081;-74
2021/03/29 03:45:53;;;;;;;5.97;2.00;;;6.10;56.70;;;;;;4979830;28;20024;-73
2021/03/29 03:48:20;;;;;;;4.85;2.00;;;6.10;56.90;;;;;;4995679;28;20026;-73
2021/03/29 03:50:50;;;;;;;11.60;4.60;;;6.10;57.00;;;;;;4979771;28;20062;-73
2021/03/29 03:53:19;;;;;;;14.15;6.50;;;6.00;57.00;;;;;;4995203;28;20034;-75
2021/03/29 03:55:45;;;;;;;19.35;9.07;;;6.10;57.10;;;;;;4979741;28;20110;-73
2021/03/29 03:58:11;;;;;;;19.77;9.52;;;6.10;57.00;;;;;;4995187;28;20034;-73
2021/03/29 04:00:37;;;;;;;14.45;7.05;;;6.00;57.00;;;;;;4995425;28;20122;-74
2021/03/29 04:03:03;;;;;;;11.75;6.75;;;6.00;57.20;;;;;;4996380;28;20042;-75
2021/03/29 04:05:29;;;;;;;11.00;6.95;;;5.90;57.10;;;;;;4996639;28;20106;-75
2021/03/29 04:07:57;;;;;;;11.27;4.45;;;5.80;57.00;;;;;;4995234;28;20455;-75
2021/03/29 04:13:11;;;;;;;5.15;3.90;;;5.90;57.10;;;;;;4996247;28;20073;-75
2021/03/29 04:15:37;;;;;;;9.25;4.20;;;5.90;57.10;;;;;;4995053;28;20230;-76
2021/03/29 04:18:04;;;;;;;7.05;3.28;;;5.90;57.30;;;;;;4994846;28;20483;-74
2021/03/29 04:20:29;;;;;;;7.25;2.53;;;5.90;57.30;;;;;;4994801;28;20022;-75
2021/03/29 04:22:56;;;;;;;5.38;2.53;;;5.90;57.30;;;;;;4995738;28;20081;-76
2021/03/29 04:25:22;;;;;;;4.38;2.30;;;5.80;57.30;;;;;;4978688;28;20117;-75
2021/03/29 04:27:47;;;;;;;5.53;2.42;;;5.70;57.30;;;;;;4996013;28;20109;-75
2021/03/29 04:30:13;;;;;;;6.03;2.30;;;5.70;57.30;;;;;;4995809;28;20104;-76
2021/03/29 04:32:40;;;;;;;7.35;2.42;;;5.60;57.30;;;;;;4995763;28;20085;-76
2021/03/29 04:35:07;;;;;;;6.30;2.60;;;5.60;57.40;;;;;;4994369;28;20036;-75
2021/03/29 04:37:33;;;;;;;9.68;2.78;;;5.70;57.60;;;;;;4995708;28;20027;-76
2021/03/29 04:39:58;;;;;;;5.75;2.35;;;5.70;57.50;;;;;;4995494;28;20057;-75
2021/03/29 04:42:24;;;;;;;4.18;1.98;;;5.70;57.70;;;;;;4994420;28;20165;-76
2021/03/29 04:44:50;;;;;;;5.78;2.78;;;5.70;57.50;;;;;;4994573;28;20077;-74
2021/03/29 04:47:15;;;;;;;8.43;2.85;;;5.60;57.30;;;;;;4993905;28;20092;-75
2021/03/29 04:49:41;;;;;;;5.43;2.38;;;5.60;57.20;;;;;;4995466;28;20073;-75
2021/03/29 04:52:07;;;;;;;9.32;2.85;;;5.60;57.40;;;;;;4995615;28;20030;-76
2021/03/29 04:54:33;;;;;;;6.45;2.75;;;5.40;57.80;;;;;;4995422;28;20426;-75
2021/03/29 04:56:59;;;;;;;6.28;3.05;;;5.30;58.30;;;;;;4995426;28;20081;-75
2021/03/29 04:59:26;;;;;;;7.07;3.20;;;5.30;58.60;;;;;;4995341;28;20137;-75
2021/03/29 05:01:52;;;;;;;6.88;2.78;;;5.40;58.60;;;;;;4995183;28;20042;-75
2021/03/29 05:04:17;;;;;;;11.30;4.00;;;5.40;58.40;;;;;;4993979;28;20537;-76
2021/03/29 05:06:43;;;;;;;4.07;2.58;;;5.40;58.30;;;;;;4993879;28;20064;-75
2021/03/29 05:09:08;;;;;;;8.95;2.53;;;5.40;58.00;;;;;;4993896;28;20058;-77
2021/03/29 05:11:48;;;;;;;7.85;2.80;;;5.40;57.80;;;;;;4995141;28;20030;-75
2021/03/29 05:14:16;;;;;;;7.88;2.80;;;5.40;57.80;;;;;;4993948;28;20080;-76
2021/03/29 05:16:43;;;;;;;9.13;2.60;;;5.50;57.80;;;;;;4993626;28;20076;-76
2021/03/29 05:19:09;;;;;;;9.88;2.30;;;5.50;57.70;;;;;;4993289;28;20041;-75
2021/03/29 05:21:35;;;;;;;7.80;2.22;;;5.50;58.30;;;;;;4994947;28;20018;-76
2021/03/29 05:24:00;;;;;;;6.10;2.58;;;5.40;58.70;;;;;;4994878;28;20490;-75
2021/03/29 05:26:26;;;;;;;5.15;2.28;;;5.50;58.90;;;;;;4994907;28;20379;-76
2021/03/29 05:28:52;;;;;;;9.63;3.00;;;5.40;59.20;;;;;;4993892;28;20038;-77
2021/03/29 05:31:17;;;;;;;8.05;3.10;;;5.40;59.20;;;;;;4994781;28;20026;-76
2021/03/29 05:33:43;;;;;;;5.35;2.63;;;5.40;59.10;;;;;;4994622;28;20030;-78
2021/03/29 05:36:15;;;;;;;7.50;3.20;;;5.40;58.50;;;;;;4994604;28;20034;-77
2021/03/29 05:38:43;;;;;;;5.72;3.17;;;5.40;57.90;;;;;;4994723;28;20045;-77
2021/03/29 05:41:14;;;;;;;10.60;3.05;;;5.50;57.80;;;;;;4994740;28;20050;-76
2021/03/29 05:43:41;;;;;;;10.40;3.70;;;5.50;57.50;;;;;;4959154;28;20039;-74
2021/03/29 05:46:07;;;;;;;8.85;3.55;;;5.60;57.20;;;;;;4976812;28;20093;-77
2021/03/29 05:48:35;;;;;;;9.32;4.00;;;5.70;57.20;;;;;;4993054;28;20038;-77
2021/03/29 05:51:01;;;;;;;9.55;4.03;;;5.70;57.40;;;;;;4992752;28;20057;-76
2021/03/29 05:53:28;;;;;;;9.50;3.97;;;5.70;57.60;;;;;;4994145;28;20655;-76
2021/03/29 05:55:55;;;;;;;14.52;4.20;;;5.70;57.70;;;;;;4992918;28;20467;-75
2021/03/29 06:00:51;;;;;;;12.18;3.95;;;5.60;57.80;;;;;;4994000;28;20080;-76
2021/03/29 06:03:38;;;;;;;14.27;4.13;;;5.70;57.80;;;;;;4993947;28;20034;-75
2021/03/29 06:06:18;;;;;;;10.07;4.22;;;5.80;57.80;;;;;;4992778;28;20081;-76
2021/03/29 06:08:51;;;;;;;10.88;4.05;;;5.80;57.70;;;;;;4993823;28;20097;-77
2021/03/29 06:11:35;;;;;;;11.82;3.55;;;5.80;57.50;;;;;;4993825;28;20530;-77
2021/03/29 06:14:21;;;;;;;10.45;3.30;;;5.70;57.50;;;;;;4993788;28;20543;-77
2021/03/29 06:17:01;;;;;;;9.25;3.35;;;5.90;57.30;;;;;;4993816;28;20501;-77
2021/03/29 06:19:36;;;;;;;10.32;2.90;;;6.00;56.80;;;;;;4993641;28;20049;-76
2021/03/29 06:22:17;;;;;;;7.75;3.22;;;6.10;56.40;;;;;;4992524;28;20038;-75
2021/03/29 06:25:08;;;;;;;9.60;3.10;;;6.10;56.10;;;;;;4993967;28;20033;-75
2021/03/29 06:27:46;;;;;;;9.43;3.22;;;6.30;55.90;;;;;;4993861;28;20030;-76
2021/03/29 06:30:18;;;;;;;9.73;3.10;;;6.40;55.60;;;;;;4992012;28;20025;-75
2021/03/29 06:33:15;;;;;;;9.35;3.20;;;6.60;56.00;;;;;;4992287;28;20037;-77
2021/03/29 06:35:42;;;;;;;8.80;3.00;;;6.90;54.40;;;;;;4986063;28;20483;-77
2021/03/29 06:38:26;;;;;;;7.68;2.85;;;7.10;53.30;;;;;;4993339;28;20038;-75
2021/03/29 06:40:52;;;;;;;4.97;2.38;;;7.20;52.40;;;;;;4993434;28;20164;-75
2021/03/29 06:43:30;;;;;;;4.90;2.58;;;7.30;51.60;;;;;;4993239;28;20499;-74
2021/03/29 06:46:01;;;;;;;8.40;2.97;;;7.30;51.30;;;;;;4993233;28;20048;-74
2021/03/29 06:48:33;;;;;;;8.02;2.92;;;7.40;51.70;;;;;;4993391;28;20068;-77
2021/03/29 06:51:18;;;;;;;11.77;3.15;;;7.60;52.30;;;;;;4993454;28;20049;-77
2021/03/29 06:53:55;;;;;;;6.07;2.67;;;7.70;52.60;;;;;;4992165;28;20160;-76
2021/03/29 06:56:24;;;;;;;12.02;3.03;;;7.90;51.60;;;;;;4992131;28;20041;-76
2021/03/29 06:58:54;;;;;;;6.57;3.00;;;8.10;51.00;;;;;;4993339;28;20031;-76
2021/03/29 07:01:23;;;;;;;6.97;2.72;;;8.20;50.30;;;;;;4976004;28;20053;-76
2021/03/29 07:03:50;;;;;;;5.20;2.88;;;8.30;49.80;;;;;;4993412;28;20057;-77
2021/03/29 07:06:25;;;;;;;11.60;3.13;;;8.40;49.40;;;;;;4993000;28;20034;-76
2021/03/29 07:08:52;;;;;;;7.03;2.42;;;8.50;49.10;;;;;;4991806;28;20023;-77
2021/03/29 07:11:21;;;;;;;10.35;2.67;;;8.50;48.40;;;;;;4995210;28;20030;-76
2021/03/29 07:13:47;;;;;;;5.03;2.25;;;8.60;48.00;;;;;;4997253;28;20109;-77
2021/03/29 07:16:13;;;;;;;8.13;3.17;;;8.60;47.80;;;;;;4996997;28;20313;-77
2021/03/29 07:18:41;;;;;;;7.78;2.17;;;8.60;47.50;;;;;;4996759;28;20125;-76
2021/03/29 07:21:09;;;;;;;5.75;2.95;;;8.70;47.30;;;;;;4979703;28;20038;-75
2021/03/29 07:23:36;;;;;;;10.80;3.60;;;8.70;47.10;;;;;;4997244;28;20018;-77
2021/03/29 07:26:02;;;;;;;22.50;4.55;;;8.70;47.60;;;;;;4997003;28;20037;-75
2021/03/29 07:28:29;;;;;;;25.38;6.15;;;8.70;48.20;;;;;;4996387;28;20026;-76
2021/03/29 07:30:59;;;;;;;6.28;2.95;;;8.70;49.00;;;;;;4998357;28;20026;-77
2021/03/29 07:33:26;;;;;;;12.20;3.75;;;8.70;49.50;;;;;;4979535;28;20033;-78
2021/03/29 07:35:54;;;;;;;7.70;3.45;;;8.60;50.20;;;;;;4979575;28;20475;-75
2021/03/29 07:38:26;;;;;;;7.47;2.88;;;8.70;50.40;;;;;;4996849;28;20426;-76
2021/03/29 07:40:54;;;;;;;9.43;2.50;;;8.70;50.20;;;;;;4997552;28;20018;-77
2021/03/29 07:43:22;;;;;;;8.18;2.85;;;8.90;49.60;;;;;;4995067;28;20033;-76
2021/03/29 07:45:55;;;;;;;8.93;3.03;;;9.00;48.60;;;;;;4995099;28;20026;-77
2021/03/29 07:48:44;;;;;;;9.35;3.83;;;9.30;47.50;;;;;;4994808;28;20025;-77
2021/03/29 07:51:18;;;;;;;14.35;3.95;;;9.60;47.30;;;;;;4996380;28;20418;-77
2021/03/29 07:53:47;;;;;;;16.20;3.85;;;9.90;53.10;;;;;;4996530;28;20022;-76
2021/03/29 07:56:41;;;;;;;12.82;3.97;;;10.50;59.90;;;;;;4996362;28;20041;-77
2021/03/29 07:59:09;;;;;;;11.50;4.35;;;10.90;55.50;;;;;;4996284;28;20129;-75
2021/03/29 08:01:59;;;;;;;10.40;4.05;;;11.30;51.30;;;;;;4995917;28;20129;-78
2021/03/29 08:05:04;;;;;;;12.90;4.28;;;11.60;48.30;;;;;;4996474;28;20026;-76
2021/03/29 08:07:44;;;;;;;9.95;4.07;;;11.90;46.50;;;;;;4992150;28;20081;-78
2021/03/29 08:10:12;;;;;;;9.45;3.60;;;12.20;46.20;;;;;;4996102;28;20026;-77
2021/03/29 08:13:00;;;;;;;8.73;4.13;;;12.40;45.00;;;;;;4994685;28;20475;-77
2021/03/29 08:16:24;;;;;;;7.90;3.58;;;12.60;43.30;;;;;;4996103;28;20022;-80
2021/03/29 08:19:25;;;;;;;8.68;3.20;;;12.70;42.60;;;;;;4935979;29;20063;-78
2021/03/29 08:21:52;;;;;;;9.77;3.40;;;13.00;41.20;;;;;;4935225;29;20034;-76
2021/03/29 08:25:04;;;;;;;7.50;3.30;;;13.10;41.50;;;;;;4962108;28;20034;-78
2021/03/29 08:27:57;;;;;;;10.45;2.65;;;13.20;41.50;;;;;;4994650;28;20046;-76
2021/03/29 08:30:25;;;;;;;5.82;2.90;;;13.40;40.30;;;;;;4977256;28;20058;-78
2021/03/29 08:33:07;;;;;;;6.07;2.20;;;13.50;40.00;;;;;;4995211;28;20030;-77
2021/03/29 08:35:37;;;;;;;7.60;2.63;;;13.70;40.10;;;;;;4995601;28;20093;-77
2021/03/29 08:38:08;;;;;;;6.32;2.22;;;14.10;39.80;;;;;;4977552;28;20367;-77
2021/03/29 08:40:34;;;;;;;9.10;2.50;;;14.30;37.80;;;;;;4995338;28;20378;-77
2021/03/29 08:43:10;;;;;;;4.03;1.80;;;14.40;37.40;;;;;;4995195;28;20026;-77
2021/03/29 08:45:37;;;;;;;9.27;2.10;;;14.60;35.30;;;;;;4995189;28;20029;-77
2021/03/29 08:48:05;;;;;;;5.80;1.88;;;14.80;34.80;;;;;;4996007;28;20022;-78
2021/03/29 08:50:37;;;;;;;3.42;2.17;;;14.90;34.70;;;;;;4977618;28;20453;-76
2021/03/29 08:53:13;;;;;;;4.03;2.10;;;15.10;34.20;;;;;;4996153;28;20030;-78
2021/03/29 08:55:43;;;;;;;4.43;1.90;;;15.10;33.10;;;;;;4995022;28;20101;-78
2021/03/29 08:58:10;;;;;;;5.20;2.00;;;15.30;33.90;;;;;;4995042;28;20134;-78
2021/03/29 09:00:42;;;;;;;3.88;1.90;;;15.60;33.70;;;;;;4995242;28;20022;-77
2021/03/29 09:03:18;;;;;;;5.30;1.58;;;15.70;32.10;;;;;;4995022;28;20061;-79
2021/03/29 09:05:44;;;;;;;4.93;1.73;;;15.90;30.90;;;;;;4994949;28;20037;-76
2021/03/29 09:08:16;;;;;;;4.55;1.80;;;16.10;30.80;;;;;;4994954;28;20014;-78
2021/03/29 09:10:45;;;;;;;4.88;1.85;;;16.20;29.70;;;;;;4993044;28;20049;-76
2021/03/29 09:13:13;;;;;;;6.32;1.65;;;16.30;28.20;;;;;;4994832;28;20081;-78
2021/03/29 09:15:49;;;;;;;3.13;1.25;;;16.30;27.20;;;;;;4993632;28;20026;-76
2021/03/29 09:18:16;;;;;;;3.33;1.23;;;16.60;27.50;;;;;;4994653;28;20027;-78
2021/03/29 09:20:45;;;;;;;5.70;1.50;;;16.80;27.40;;;;;;4994847;28;20026;-76
2021/03/29 09:25:49;;;;;;;8.30;1.50;;;17.10;26.60;;;;;;5028465;23;20058;-77
2021/03/29 09:30:53;;;;;;;2.67;1.00;;;17.30;25.50;;;;;;4975433;28;20023;-77
2021/03/29 09:33:20;;;;;;;5.05;1.23;;;17.40;25.40;;;;;;4975309;28;20433;-77
2021/03/29 09:35:47;;;;;;;4.85;1.35;;;17.70;25.10;;;;;;4975058;28;20082;-77
2021/03/29 09:38:14;;;;;;;5.90;1.38;;;17.80;24.60;;;;;;4974828;28;20396;-77
2021/03/29 09:40:41;;;;;;;5.88;1.35;;;17.90;23.60;;;;;;4974830;28;20034;-78
2021/03/29 09:43:20;;;;;;;3.42;1.38;;;18.10;23.60;;;;;;4974618;28;20113;-76
2021/03/29 09:45:46;;;;;;;6.22;1.60;;;18.30;23.40;;;;;;4967926;28;20026;-74
2021/03/29 09:48:12;;;;;;;5.10;1.48;;;18.50;22.60;;;;;;4974870;28;20570;-76
2021/03/29 09:50:43;;;;;;;3.88;1.10;;;18.60;22.80;;;;;;4973013;28;20130;-74
2021/03/29 09:53:17;;;;;;;4.80;1.55;;;18.80;22.50;;;;;;4973451;28;20027;-74
2021/03/29 09:55:58;;;;;;;4.72;1.30;;;18.70;21.00;;;;;;4973274;28;20023;-77
2021/03/29 09:58:48;;;;;;;3.42;1.23;;;18.80;20.70;;;;;;4974711;28;20086;-75
2021/03/29 10:01:21;;;;;;;3.03;1.13;;;19.00;20.80;;;;;;4984417;28;20038;-77
2021/03/29 10:03:59;;;;;;;3.60;1.33;;;19.20;21.10;;;;;;4976174;28;20022;-77
2021/03/29 10:06:26;;;;;;;6.18;1.52;;;19.40;20.70;;;;;;4993485;28;20022;-77
2021/03/29 10:09:03;;;;;;;3.47;1.38;;;19.50;20.00;;;;;;4981165;28;20022;-78
2021/03/29 10:11:46;;;;;;;3.72;1.30;;;19.30;19.50;;;;;;4994656;28;20033;-77
2021/03/29 10:14:15;;;;;;;9.50;1.45;;;19.10;18.90;;;;;;4975973;28;20026;-76
2021/03/29 10:16:48;;;;;;;5.32;1.63;;;19.10;18.70;;;;;;4993758;28;20041;-74
2021/03/29 10:19:18;;;;;;;2.95;1.45;;;19.20;18.80;;;;;;4993311;28;20451;-76
2021/03/29 10:22:05;;;;;;;2.42;0.80;;;19.40;19.10;;;;;;4993443;28;20022;-76
2021/03/29 10:24:56;;;;;;;2.80;1.10;;;19.30;18.90;;;;;;4992862;28;20096;-75
2021/03/29 10:27:24;;;;;;;4.82;1.45;;;19.30;18.40;;;;;;4975627;28;20550;-74
2021/03/29 10:29:51;;;;;;;1.92;1.00;;;19.30;18.30;;;;;;4993048;28;20073;-74
2021/03/29 10:32:20;;;;;;;2.10;1.10;;;19.40;18.10;;;;;;4975551;28;20026;-74
2021/03/29 10:34:49;;;;;;;3.42;1.08;;;19.60;17.60;;;;;;4993182;28;20022;-75
2021/03/29 10:37:28;;;;;;;3.47;1.80;;;19.50;17.10;;;;;;4975622;28;20038;-75
2021/03/29 10:39:57;;;;;;;4.85;1.45;;;19.60;16.60;;;;;;4976056;28;20069;-75
2021/03/29 10:42:25;;;;;;;1.63;1.13;;;19.80;16.10;;;;;;4993282;28;20029;-76
2021/03/29 10:44:52;;;;;;;4.05;1.23;;;19.90;15.90;;;;;;4992861;28;20057;-75
2021/03/29 10:47:18;;;;;;;3.45;1.48;;;19.90;15.60;;;;;;4975563;28;20141;-76
2021/03/29 10:49:44;;;;;;;6.25;1.27;;;19.60;15.70;;;;;;4959615;28;20545;-76
2021/03/29 10:52:10;;;;;;;3.75;1.13;;;19.70;15.60;;;;;;4992955;28;20033;-74
2021/03/29 10:54:37;;;;;;;17.05;1.60;;;19.70;15.60;;;;;;4992932;28;20103;-74
2021/03/29 10:57:03;;;;;;;4.55;1.90;;;19.70;15.60;;;;;;4975419;28;20030;-75
2021/03/29 10:59:29;;;;;;;2.00;1.02;;;20.10;16.00;;;;;;4993015;28;20076;-75
2021/03/29 11:01:55;;;;;;;2.42;1.10;;;20.20;15.60;;;;;;4975511;28;20109;-74
2021/03/29 11:04:21;;;;;;;3.45;1.10;;;20.20;15.20;;;;;;4993262;28;20483;-74
2021/03/29 11:06:46;;;;;;;4.97;1.10;;;20.20;14.90;;;;;;4975984;28;20023;-73
2021/03/29 11:09:13;;;;;;;3.78;1.02;;;20.10;14.80;;;;;;4993208;28;20030;-75
2021/03/29 11:11:39;;;;;;;2.50;0.82;;;20.00;14.40;;;;;;4992911;28;20034;-73
2021/03/29 11:14:05;;;;;;;3.78;1.30;;;20.00;14.20;;;;;;4993034;28;20038;-75
2021/03/29 11:16:31;;;;;;;3.25;1.00;;;20.30;14.10;;;;;;4992872;28;20030;-75
2021/03/29 11:18:57;;;;;;;3.58;0.85;;;20.50;13.20;;;;;;4992752;28;20541;-75
2021/03/29 11:21:22;;;;;;;2.97;0.80;;;20.50;12.90;;;;;;4992900;28;20031;-73
2021/03/29 11:23:48;;;;;;;3.28;1.00;;;20.30;12.40;;;;;;4993116;28;20088;-73
2021/03/29 11:26:15;;;;;;;3.20;1.23;;;20.50;12.00;;;;;;4993072;28;20030;-73
2021/03/29 11:28:41;;;;;;;4.28;1.17;;;20.60;11.60;;;;;;4992758;28;20031;-74
2021/03/29 11:31:06;;;;;;;2.90;1.02;;;20.80;11.60;;;;;;4992988;28;20487;-74
2021/03/29 11:33:32;;;;;;;2.40;0.90;;;21.00;12.20;;;;;;4992946;28;20042;-75
2021/03/29 11:35:58;;;;;;;4.13;1.58;;;21.10;12.20;;;;;;4975271;28;20057;-73
2021/03/29 11:38:24;;;;;;;4.28;1.15;;;21.40;11.90;;;;;;4992793;28;20495;-73
2021/03/29 11:40:49;;;;;;;2.22;0.73;;;21.50;11.70;;;;;;4992994;28;20042;-72
2021/03/29 11:43:15;;;;;;;2.97;0.95;;;21.60;11.80;;;;;;4975434;28;20545;-74
2021/03/29 11:45:40;;;;;;;5.25;1.33;;;21.90;11.70;;;;;;4992807;28;20034;-73
2021/03/29 11:48:06;;;;;;;2.72;1.00;;;22.00;11.50;;;;;;4992729;28;20059;-72
2021/03/29 11:50:32;;;;;;;2.72;0.93;;;22.00;11.40;;;;;;4975332;28;20474;-72
2021/03/29 11:52:57;;;;;;;1.90;1.10;;;22.10;11.70;;;;;;4992779;28;20030;-72
2021/03/29 11:55:24;;;;;;;2.20;1.00;;;22.20;11.40;;;;;;4992602;28;20030;-72
2021/03/29 11:57:50;;;;;;;2.53;0.93;;;21.80;10.70;;;;;;4977420;28;20030;-73
2021/03/29 12:00:25;;;;;;;1.30;0.80;;;21.50;10.30;;;;;;4978491;28;20121;-73
2021/03/29 12:03:13;;;;;;;2.92;0.70;;;21.70;9.90;;;;;;4978710;28;20022;-73
2021/03/29 12:05:46;;;;;;;3.42;0.98;;;22.00;9.90;;;;;;4996363;28;20045;-73
2021/03/29 12:13:33;;;;;;;3.35;0.90;;;22.30;9.10;;;;;;4996207;28;20372;-74
2021/03/29 12:16:00;;;;;;;4.32;1.10;;;22.50;9.20;;;;;;4995910;28;20398;-73
2021/03/29 12:21:15;;;;;;;1.08;0.82;;;22.60;8.60;;;;;;4996012;28;20062;-72
2021/03/29 12:23:45;;;;;;;1.42;0.80;;;22.50;8.20;;;;;;4995699;28;20053;-73
2021/03/29 12:26:12;;;;;;;2.67;0.82;;;22.60;7.90;;;;;;4978236;28;20030;-73
2021/03/29 12:28:42;;;;;;;6.30;1.10;;;22.90;7.90;;;;;;4995431;28;20041;-75
2021/03/29 12:31:08;;;;;;;4.43;0.80;;;23.10;8.00;;;;;;4995747;28;20029;-78
2021/03/29 12:33:34;;;;;;;3.70;1.13;;;23.30;8.20;;;;;;4977984;28;20027;-74
2021/03/29 12:36:00;;;;;;;2.17;1.02;;;23.40;7.80;;;;;;4978040;28;20030;-73
2021/03/29 12:38:30;;;;;;;2.40;0.80;;;23.50;7.60;;;;;;4977841;28;20045;-80
2021/03/29 12:41:01;;;;;;;1.17;0.90;;;23.50;7.50;;;;;;4995493;28;20141;-75
2021/03/29 12:43:34;;;;;;;1.50;0.90;;;23.40;7.30;;;;;;4995692;28;20104;-76
2021/03/29 12:46:04;;;;;;;2.30;1.10;;;23.50;7.60;;;;;;4995554;28;20022;-77
2021/03/29 12:48:31;;;;;;;7.18;1.00;;;23.70;7.80;;;;;;4977909;28;20054;-74
2021/03/29 12:51:00;;;;;;;2.67;1.20;;;23.40;7.80;;;;;;4978005;28;20483;-81
2021/03/29 12:53:28;;;;;;;1.70;1.02;;;23.00;8.10;;;;;;4995439;28;20419;-80
2021/03/29 12:55:54;;;;;;;2.83;1.17;;;23.10;8.10;;;;;;4995317;28;20105;-75
2021/03/29 12:58:19;;;;;;;6.00;1.42;;;23.20;8.10;;;;;;4995044;28;20547;-73
2021/03/29 13:00:46;;;;;;;5.43;1.30;;;23.50;8.30;;;;;;4995329;28;20018;-71
2021/03/29 13:03:13;;;;;;;3.45;1.17;;;23.60;8.10;;;;;;4977584;28;20027;-75
2021/03/29 13:06:07;;;;;;;1.80;1.10;;;23.50;7.80;;;;;;4995105;28;20018;-73
2021/03/29 13:08:28;;;;;;;2.60;1.13;;;23.10;8.00;;;;;;4993268;28;20065;-79
2021/03/29 13:11:21;;;;;;;2.22;1.10;;;23.20;8.00;;;;;;4977598;28;20031;-74
2021/03/29 13:13:47;;;;;;;6.50;1.17;;;23.40;8.10;;;;;;4994979;28;20018;-74
2021/03/29 13:16:12;;;;;;;7.38;1.40;;;23.50;8.20;;;;;;4994339;28;20035;-77
2021/03/29 13:18:38;;;;;;;5.50;1.25;;;23.50;8.20;;;;;;4994824;28;20089;-75
2021/03/29 13:21:04;;;;;;;2.15;1.00;;;23.70;8.10;;;;;;4994595;28;20024;-76
2021/03/29 13:23:31;;;;;;;1.27;0.88;;;24.10;8.10;;;;;;4977150;28;20034;-81
2021/03/29 13:25:56;;;;;;;2.47;1.20;;;24.10;8.10;;;;;;4977166;28;20041;-76
2021/03/29 13:28:26;;;;;;;1.23;0.93;;;24.30;8.20;;;;;;4994323;28;20102;-84